Time;durP1;ratioP1;P1;durP2;ratioP2;P2;SDS_P1;SDS_P2;PMS_P1;PMS_P2;Temp;Humidity;BMP_temperature;BMP_pressure;BME280_temperature;BME280_humidity;BME280_pressure;Samples;Min_cycle;Max_cycle;Signal;HPM_P1;HPM_P2
2022/12/03 00:00:07;;;;;;;52.57;49.40;;;;;;;4.03;100.00;102847.13;5072389;28;20447;-47
2022/12/03 00:02:39;;;;;;;57.30;53.50;;;;;;;4.08;100.00;102845.00;5060811;28;20541;-45
2022/12/03 00:05:08;;;;;;;57.90;53.83;;;;;;;4.11;100.00;102847.44;5052269;28;20427;-47
2022/12/03 00:07:35;;;;;;;52.87;49.23;;;;;;;4.13;100.00;102845.53;5052147;28;20960;-47
2022/12/03 00:10:04;;;;;;;50.73;47.60;;;;;;;4.09;100.00;102847.53;5052138;28;20534;-49
2022/12/03 00:12:33;;;;;;;52.67;49.40;;;;;;;4.12;100.00;102847.31;5061634;28;20450;-50
2022/12/03 00:15:01;;;;;;;51.90;47.90;;;;;;;4.13;100.00;102838.47;5072116;28;20466;-50
2022/12/03 00:17:28;;;;;;;51.77;48.63;;;;;;;4.16;100.00;102840.91;5071844;28;20430;-48
2022/12/03 00:19:56;;;;;;;53.00;49.70;;;;;;;4.17;100.00;102839.09;5071903;28;20829;-48
2022/12/03 00:22:24;;;;;;;50.30;47.30;;;;;;;4.17;100.00;102839.09;5062654;28;20462;-49
2022/12/03 00:24:51;;;;;;;48.23;45.10;;;;;;;4.17;100.00;102839.09;5051765;28;20535;-50
2022/12/03 00:27:19;;;;;;;44.77;42.17;;;;;;;4.17;100.00;102829.38;5051937;28;20439;-52
2022/12/03 00:29:48;;;;;;;45.10;41.90;;;;;;;4.20;100.00;102838.91;5052040;28;20503;-49
2022/12/03 00:32:16;;;;;;;44.40;41.70;;;;;;;4.20;100.00;102828.34;5059604;28;20458;-46
2022/12/03 00:34:44;;;;;;;45.03;42.20;;;;;;;4.21;100.00;102832.69;5071931;28;20789;-48
2022/12/03 00:37:12;;;;;;;44.37;41.53;;;;;;;4.22;100.00;102827.28;5071937;28;20438;-48
2022/12/03 00:39:39;;;;;;;42.43;39.87;;;;;;;4.18;100.00;102825.78;5071690;28;20438;-48
2022/12/03 00:42:07;;;;;;;43.70;41.00;;;;;;;4.21;100.00;102822.13;5064650;28;20477;-46
2022/12/03 00:44:34;;;;;;;44.83;41.93;;;;;;;4.20;100.00;102820.41;5051723;28;20435;-48
2022/12/03 00:47:03;;;;;;;42.33;39.40;;;;;;;4.17;100.00;102824.09;5051764;28;21130;-48
2022/12/03 00:49:31;;;;;;;42.57;40.07;;;;;;;4.18;100.00;102822.31;5051765;28;20853;-50
2022/12/03 00:51:59;;;;;;;43.37;40.60;;;;;;;4.22;100.00;102818.50;5056954;28;20458;-48
2022/12/03 00:54:27;;;;;;;43.43;40.73;;;;;;;4.23;100.00;102818.41;5070890;28;20936;-47
2022/12/03 00:56:58;;;;;;;43.80;41.23;;;;;;;4.23;100.00;102817.56;5061579;28;20851;-47
2022/12/03 00:59:26;;;;;;;42.70;40.20;;;;;;;4.19;100.00;102824.00;5071989;28;20446;-47
2022/12/03 01:01:54;;;;;;;41.70;39.27;;;;;;;4.19;100.00;102829.28;5066503;28;20467;-49
2022/12/03 01:04:23;;;;;;;41.43;39.13;;;;;;;4.18;100.00;102819.69;5051725;28;20434;-46
2022/12/03 01:06:50;;;;;;;41.87;39.30;;;;;;;4.18;100.00;102819.69;5051579;28;20439;-51
2022/12/03 01:09:18;;;;;;;39.70;37.40;;;;;;;4.18;100.00;102817.84;5051511;28;20854;-47
2022/12/03 01:11:46;;;;;;;42.93;39.60;;;;;;;4.19;100.00;102818.72;5055073;28;20890;-49
2022/12/03 01:14:15;;;;;;;40.07;37.50;;;;;;;4.21;100.00;102817.66;5071236;28;20430;-47
2022/12/03 01:16:43;;;;;;;42.43;39.93;;;;;;;4.23;100.00;102822.84;5071598;28;20430;-48
2022/12/03 01:19:14;;;;;;;40.53;38.13;;;;;;;4.21;100.00;102819.47;5071286;28;20470;-48
2022/12/03 01:21:44;;;;;;;39.80;37.33;;;;;;;4.18;100.00;102814.41;5067612;28;20463;-46
2022/12/03 01:24:12;;;;;;;41.43;39.00;;;;;;;4.14;100.00;102810.25;5051197;28;20435;-47
2022/12/03 01:26:40;;;;;;;40.43;38.10;;;;;;;4.15;100.00;102815.44;5051819;28;20431;-44
2022/12/03 01:29:07;;;;;;;39.80;37.30;;;;;;;4.14;100.00;102815.53;5051068;28;20471;-45
2022/12/03 01:34:20;;;;;;;38.80;36.60;;;;;;;4.09;100.00;102831.69;5074769;28;20430;-46
2022/12/03 01:36:51;;;;;;;40.87;38.40;;;;;;;4.01;100.00;102815.53;5074974;28;20429;-47
2022/12/03 01:39:18;;;;;;;41.20;38.77;;;;;;;4.01;100.00;102814.69;5075093;28;20438;-42
2022/12/03 01:41:47;;;;;;;41.73;38.90;;;;;;;3.99;100.00;102813.94;5070607;28;20463;-43
2022/12/03 01:44:18;;;;;;;41.00;38.40;;;;;;;3.94;100.00;102816.06;5054571;28;20438;-47
2022/12/03 01:46:46;;;;;;;40.30;37.63;;;;;;;3.92;100.00;102810.88;5055148;28;20450;-43
2022/12/03 01:49:18;;;;;;;41.20;38.80;;;;;;;3.94;100.00;102808.13;5054816;28;20506;-45
2022/12/03 01:51:47;;;;;;;42.40;39.70;;;;;;;3.90;100.00;102813.63;5058242;28;20445;-44
2022/12/03 01:54:19;;;;;;;40.63;38.30;;;;;;;3.89;100.00;102801.38;5074322;28;20433;-44
2022/12/03 01:56:47;;;;;;;39.70;37.40;;;;;;;3.89;100.00;102817.19;5062992;28;20458;-46
2022/12/03 01:59:17;;;;;;;40.73;37.93;;;;;;;3.87;100.00;102813.84;5054345;28;20790;-43
2022/12/03 02:01:46;;;;;;;39.83;37.33;;;;;;;3.88;100.00;102806.75;5057786;28;20450;-43
2022/12/03 02:04:15;;;;;;;39.50;37.10;;;;;;;3.88;100.00;102804.94;5074219;28;20430;-42
2022/12/03 02:06:44;;;;;;;40.47;37.47;;;;;;;3.87;100.00;102805.91;5074424;28;20430;-44
2022/12/03 02:09:13;;;;;;;40.10;37.70;;;;;;;3.89;100.00;102814.56;5074199;28;20478;-45
2022/12/03 02:11:45;;;;;;;40.30;37.80;;;;;;;3.88;100.00;102809.41;5070787;28;20451;-43
2022/12/03 02:14:16;;;;;;;39.73;37.43;;;;;;;3.87;100.00;102805.06;5054274;28;20431;-46
2022/12/03 02:16:44;;;;;;;39.83;36.77;;;;;;;3.89;100.00;102811.06;5054390;28;20446;-45
2022/12/03 02:19:21;;;;;;;38.07;35.90;;;;;;;3.89;100.00;102811.06;5054063;28;20463;-46
2022/12/03 02:22:00;;;;;;;40.20;37.20;;;;;;;3.88;100.00;102802.31;5053467;28;20459;-44
2022/12/03 02:24:37;;;;;;;40.50;38.00;;;;;;;3.87;100.00;102807.69;5054165;28;20435;-43
2022/12/03 02:27:06;;;;;;;40.90;37.70;;;;;;;3.87;100.00;102812.97;5054049;28;20445;-43
2022/12/03 02:29:34;;;;;;;40.63;38.03;;;;;;;3.86;100.00;102803.34;5053838;28;20980;-43
2022/12/03 02:32:01;;;;;;;39.67;37.37;;;;;;;3.85;100.00;102805.16;5053475;28;20463;-42
2022/12/03 02:34:35;;;;;;;41.40;38.40;;;;;;;3.84;100.00;102800.00;5053485;28;20432;-44
2022/12/03 02:37:05;;;;;;;40.80;38.10;;;;;;;3.83;100.00;102796.50;5054213;28;20457;-43
2022/12/03 02:39:37;;;;;;;40.10;37.53;;;;;;;3.83;100.00;102809.69;5053842;28;20798;-42
2022/12/03 02:44:53;;;;;;;43.30;39.83;;;;;;;3.79;100.00;102797.63;5073382;28;20422;-44
2022/12/03 02:47:22;;;;;;;39.93;37.47;;;;;;;3.80;100.00;102801.13;5073630;28;20438;-42
2022/12/03 02:49:50;;;;;;;40.53;38.03;;;;;;;3.80;100.00;102794.06;5073539;28;20484;-45
2022/12/03 02:52:19;;;;;;;41.77;38.93;;;;;;;3.77;100.00;102794.28;5064882;28;21023;-43
2022/12/03 02:54:48;;;;;;;41.07;38.33;;;;;;;3.78;100.00;102784.56;5053298;28;20527;-43
2022/12/03 02:57:17;;;;;;;39.87;37.47;;;;;;;3.77;100.00;102798.69;5045422;28;20455;-44
2022/12/03 02:59:45;;;;;;;42.37;39.20;;;;;;;3.77;100.00;102794.28;5053515;28;20447;-43
2022/12/03 03:02:14;;;;;;;40.97;38.27;;;;;;;3.81;100.00;102795.75;5060427;28;20466;-45
2022/12/03 03:04:43;;;;;;;40.27;37.77;;;;;;;3.78;100.00;102790.69;5073168;28;20457;-47
2022/12/03 03:07:11;;;;;;;40.53;37.93;;;;;;;3.78;100.00;102785.41;5073354;28;20434;-45
2022/12/03 03:09:39;;;;;;;41.13;38.30;;;;;;;3.79;100.00;102783.63;5073055;28;20565;-43
2022/12/03 03:12:07;;;;;;;44.10;41.10;;;;;;;3.79;100.00;102786.28;5066189;28;20469;-42
2022/12/03 03:14:36;;;;;;;42.23;39.27;;;;;;;3.80;100.00;102787.94;5052887;28;20431;-45
2022/12/03 03:17:04;;;;;;;41.87;38.97;;;;;;;3.78;100.00;102777.50;5053301;28;20814;-42
2022/12/03 03:19:32;;;;;;;45.37;42.33;;;;;;;3.80;100.00;102777.38;5052772;28;20463;-43
2022/12/03 03:22:00;;;;;;;42.67;40.17;;;;;;;3.80;100.00;102778.22;5058183;28;20465;-46
2022/12/03 03:24:27;;;;;;;43.07;40.33;;;;;;;3.81;100.00;102764.09;5072720;28;20431;-44
2022/12/03 03:26:55;;;;;;;42.40;39.87;;;;;;;3.81;100.00;102779.94;5073009;28;20434;-42
2022/12/03 03:29:23;;;;;;;43.30;40.33;;;;;;;3.85;100.00;102777.94;5072617;28;20476;-46
2022/12/03 03:31:52;;;;;;;42.77;39.97;;;;;;;3.87;100.00;102774.25;5067797;28;20994;-44
2022/12/03 03:34:20;;;;;;;43.50;40.87;;;;;;;3.86;100.00;102787.53;5052499;28;20434;-43
2022/12/03 03:36:48;;;;;;;42.40;39.37;;;;;;;3.86;100.00;102780.47;5052606;28;20431;-45
2022/12/03 03:39:15;;;;;;;42.40;39.30;;;;;;;3.90;100.00;102781.94;5052797;28;20456;-42
2022/12/03 03:41:45;;;;;;;43.40;39.80;;;;;;;3.90;100.00;102774.03;5055683;28;20931;-44
2022/12/03 03:44:14;;;;;;;42.17;39.33;;;;;;;3.91;100.00;102780.97;5072234;28;20917;-44
2022/12/03 03:46:42;;;;;;;43.30;40.40;;;;;;;3.90;100.00;102774.03;5072400;28;20929;-42
2022/12/03 03:49:12;;;;;;;45.37;42.30;;;;;;;3.94;100.00;102771.19;5072313;28;20528;-47
2022/12/03 03:51:40;;;;;;;42.43;39.80;;;;;;;3.90;100.00;102773.19;5068837;28;20469;-43
2022/12/03 03:54:08;;;;;;;43.97;40.83;;;;;;;3.87;100.00;102776.03;5051748;28;20435;-44
2022/12/03 03:56:36;;;;;;;41.97;39.60;;;;;;;3.90;100.00;102765.25;5052093;28;20424;-43
2022/12/03 03:59:04;;;;;;;43.67;40.83;;;;;;;3.86;100.00;102776.97;5052119;28;20458;-47
2022/12/03 04:01:32;;;;;;;44.47;41.30;;;;;;;3.83;100.00;102749.00;5053787;28;20802;-42
2022/12/03 04:04:00;;;;;;;43.73;40.70;;;;;;;3.87;100.00;102760.19;5071817;28;20438;-42
2022/12/03 04:06:29;;;;;;;43.73;40.80;;;;;;;3.86;100.00;102767.25;5072330;28;20487;-42
2022/12/03 04:08:57;;;;;;;44.00;40.73;;;;;;;3.86;100.00;102767.25;5072035;28;20457;-42
2022/12/03 04:14:10;;;;;;;45.87;42.63;;;;;;;3.87;100.00;102763.69;5051825;28;20427;-45
2022/12/03 04:16:37;;;;;;;44.73;41.97;;;;;;;3.84;100.00;102752.47;5051895;28;20453;-43
2022/12/03 04:19:05;;;;;;;42.83;39.93;;;;;;;3.83;100.00;102767.47;5051858;28;20501;-42
2022/12/03 04:24:19;;;;;;;43.53;40.30;;;;;;;3.83;100.00;102769.25;5071748;28;20430;-43
2022/12/03 04:29:32;;;;;;;44.43;41.60;;;;;;;3.84;100.00;102757.75;5066313;28;20446;-44
2022/12/03 04:37:31;;;;;;;41.70;39.00;;;;;;;3.76;100.00;102760.91;5051591;28;20956;-44
2022/12/03 04:39:58;;;;;;;41.97;39.27;;;;;;;3.72;100.00;102754.16;5051705;28;20447;-42
2022/12/03 04:42:26;;;;;;;43.23;40.70;;;;;;;3.70;100.00;102750.75;5051005;28;20909;-47
2022/12/03 04:44:54;;;;;;;42.73;39.93;;;;;;;3.70;100.00;102752.59;5051547;28;20511;-42
2022/12/03 04:47:22;;;;;;;44.30;41.33;;;;;;;3.68;100.00;102755.31;5051614;28;20435;-45
2022/12/03 04:49:51;;;;;;;44.57;41.40;;;;;;;3.65;100.00;102746.75;5051311;28;20447;-42
2022/12/03 04:52:20;;;;;;;46.33;43.00;;;;;;;3.67;100.00;102744.88;5051199;28;20473;-43
2022/12/03 04:54:49;;;;;;;45.50;41.90;;;;;;;3.62;100.00;102750.44;5051112;28;20431;-43
2022/12/03 04:57:17;;;;;;;42.90;40.40;;;;;;;3.63;100.00;102744.22;5043923;28;20438;-45
2022/12/03 04:59:44;;;;;;;45.77;42.60;;;;;;;3.62;100.00;102749.59;5051350;28;20455;-44
2022/12/03 05:02:12;;;;;;;44.17;41.17;;;;;;;3.67;100.00;102750.16;5050751;28;20970;-42
2022/12/03 05:04:40;;;;;;;43.50;40.77;;;;;;;3.60;100.00;102741.78;5051479;28;20443;-43
2022/12/03 05:07:07;;;;;;;44.03;41.10;;;;;;;3.60;100.00;102736.50;5055630;28;20431;-42
2022/12/03 05:09:35;;;;;;;44.67;41.37;;;;;;;3.60;100.00;102733.03;5055541;28;20458;-43
2022/12/03 05:12:05;;;;;;;42.37;39.73;;;;;;;3.61;100.00;102727.66;5055013;28;20474;-46
2022/12/03 05:14:32;;;;;;;43.37;40.67;;;;;;;3.65;100.00;102739.69;5055177;28;20435;-43
2022/12/03 05:17:00;;;;;;;42.17;39.47;;;;;;;3.57;100.00;102733.22;5055197;28;20435;-45
2022/12/03 05:22:09;;;;;;;46.47;43.07;;;;;;;3.57;100.00;102728.81;5054544;28;20459;-44
2022/12/03 05:24:37;;;;;;;44.90;41.73;;;;;;;3.59;100.00;102719.00;5055083;28;20426;-43
2022/12/03 05:27:06;;;;;;;43.60;40.60;;;;;;;3.59;100.00;102726.91;5055113;28;20442;-44
2022/12/03 05:29:33;;;;;;;46.30;43.03;;;;;;;3.60;100.00;102731.25;5055345;28;20534;-44
2022/12/03 05:32:01;;;;;;;47.67;44.47;;;;;;;3.61;100.00;102734.72;5054742;28;20467;-45
2022/12/03 05:34:29;;;;;;;46.83;43.67;;;;;;;3.59;100.00;102737.44;5054712;28;20960;-42
2022/12/03 05:36:56;;;;;;;43.90;41.33;;;;;;;3.55;100.00;102719.31;5055127;28;20810;-42
2022/12/03 05:39:24;;;;;;;47.63;44.20;;;;;;;3.58;100.00;102716.47;5054893;28;20457;-45
2022/12/03 05:44:38;;;;;;;47.93;44.80;;;;;;;3.59;100.00;102710.22;5054659;28;20506;-42
2022/12/03 05:47:06;;;;;;;47.53;44.70;;;;;;;3.57;100.00;102726.16;5054810;28;20822;-45
2022/12/03 05:49:33;;;;;;;49.53;46.30;;;;;;;3.52;100.00;102711.59;5054845;28;20538;-43
2022/12/03 05:52:01;;;;;;;45.60;42.20;;;;;;;3.51;100.00;102713.38;5054193;28;20467;-42
2022/12/03 05:54:29;;;;;;;44.70;41.60;;;;;;;3.53;100.00;102729.09;5054181;28;20446;-42
2022/12/03 05:56:56;;;;;;;45.93;42.73;;;;;;;3.50;100.00;102732.78;5054630;28;20539;-44
2022/12/03 05:59:24;;;;;;;44.23;41.53;;;;;;;3.50;100.00;102724.88;5054589;28;20924;-45
2022/12/03 06:01:53;;;;;;;47.57;43.80;;;;;;;3.54;100.00;102720.25;5054141;28;20827;-42
2022/12/03 06:04:21;;;;;;;46.07;43.27;;;;;;;3.51;100.00;102716.03;5054428;28;20819;-43
2022/12/03 06:06:48;;;;;;;46.50;43.40;;;;;;;3.55;100.00;102709.59;5054391;28;20443;-44
2022/12/03 06:09:16;;;;;;;44.73;41.90;;;;;;;3.54;100.00;102707.06;5054561;28;20466;-42
2022/12/03 06:11:44;;;;;;;47.20;44.07;;;;;;;3.55;100.00;102708.75;5053976;28;20455;-43
2022/12/03 06:14:11;;;;;;;46.67;43.60;;;;;;;3.58;100.00;102711.19;5054000;28;20438;-43
2022/12/03 06:16:39;;;;;;;45.27;42.20;;;;;;;3.57;100.00;102706.84;5053695;28;20802;-43
2022/12/03 06:19:08;;;;;;;47.73;44.23;;;;;;;3.62;100.00;102708.22;5053964;28;20997;-42
2022/12/03 06:21:35;;;;;;;46.70;42.70;;;;;;;3.63;100.00;102709.06;5053577;28;20810;-42
2022/12/03 06:24:03;;;;;;;43.60;40.80;;;;;;;3.65;100.00;102709.81;5053994;28;20438;-45
2022/12/03 06:26:31;;;;;;;46.40;43.10;;;;;;;3.65;100.00;102718.56;5054230;28;20442;-44
2022/12/03 06:28:59;;;;;;;45.23;42.23;;;;;;;3.66;100.00;102709.72;5053898;28;21060;-43
2022/12/03 06:31:26;;;;;;;46.10;43.20;;;;;;;3.65;100.00;102713.28;5054526;28;20470;-44
2022/12/03 06:33:54;;;;;;;43.90;41.10;;;;;;;3.69;100.00;102712.16;5073576;28;20970;-43
2022/12/03 06:36:23;;;;;;;46.73;43.60;;;;;;;3.66;100.00;102722.91;5074155;28;20449;-43
2022/12/03 06:38:51;;;;;;;43.70;40.93;;;;;;;3.61;100.00;102706.56;5073908;28;20453;-43
2022/12/03 06:41:18;;;;;;;46.10;42.80;;;;;;;3.66;100.00;102701.81;5073675;28;20426;-42
2022/12/03 06:43:46;;;;;;;44.50;41.37;;;;;;;3.67;100.00;102705.28;5053369;28;20553;-42
2022/12/03 06:46:13;;;;;;;44.70;41.63;;;;;;;3.63;100.00;102703.81;5053649;28;20431;-47
2022/12/03 06:48:41;;;;;;;45.40;42.60;;;;;;;3.66;100.00;102709.72;5053429;28;20466;-43
2022/12/03 06:51:09;;;;;;;43.20;40.50;;;;;;;3.69;100.00;102698.97;5053604;28;20582;-43
2022/12/03 06:53:38;;;;;;;45.80;42.97;;;;;;;3.68;100.00;102699.03;5053043;28;20467;-43
2022/12/03 06:56:06;;;;;;;45.70;42.60;;;;;;;3.68;100.00;102702.53;5053541;28;20427;-42
2022/12/03 06:58:33;;;;;;;44.77;42.03;;;;;;;3.70;100.00;102705.09;5053485;28;20435;-45
2022/12/03 07:01:01;;;;;;;45.77;42.33;;;;;;;3.67;100.00;102713.22;5053256;28;20954;-44
2022/12/03 07:03:29;;;;;;;45.70;42.97;;;;;;;3.67;100.00;102692.09;5070799;28;20467;-48
2022/12/03 07:05:57;;;;;;;47.10;44.07;;;;;;;3.68;100.00;102704.31;5073336;28;20437;-47
2022/12/03 07:08:24;;;;;;;45.33;42.27;;;;;;;3.68;100.00;102706.97;5061373;28;20814;-43
2022/12/03 07:10:53;;;;;;;43.70;40.60;;;;;;;3.62;100.00;102691.53;5070265;28;20457;-42
2022/12/03 07:13:21;;;;;;;45.97;42.80;;;;;;;3.60;100.00;102696.94;5054698;28;20489;-48
2022/12/03 07:15:49;;;;;;;44.90;42.10;;;;;;;3.62;100.00;102707.38;5053276;28;20431;-45
2022/12/03 07:18:16;;;;;;;45.23;42.20;;;;;;;3.61;100.00;102690.72;5053105;28;20439;-44
2022/12/03 07:20:44;;;;;;;45.90;43.00;;;;;;;3.58;100.00;102698.84;5053163;28;20431;-46
2022/12/03 07:23:11;;;;;;;54.40;50.70;;;;;;;3.59;100.00;102689.13;5067872;28;20466;-43
2022/12/03 07:25:39;;;;;;;53.80;50.30;;;;;;;3.60;100.00;102681.13;5072947;28;20801;-45
2022/12/03 07:28:08;;;;;;;55.37;51.90;;;;;;;3.58;100.00;102690.09;5072560;28;20446;-47
2022/12/03 07:30:36;;;;;;;54.80;51.20;;;;;;;3.53;100.00;102685.09;5073139;28;20454;-46
2022/12/03 07:33:03;;;;;;;59.93;55.93;;;;;;;3.53;100.00;102686.91;5057780;28;20472;-46
2022/12/03 07:35:31;;;;;;;63.97;59.67;;;;;;;3.52;100.00;102687.88;5052917;28;20946;-46
2022/12/03 07:37:59;;;;;;;60.83;57.07;;;;;;;3.49;100.00;102693.34;5051808;28;20980;-44
2022/12/03 07:40:26;;;;;;;62.50;58.57;;;;;;;3.50;100.00;102687.94;5052759;28;20458;-46
2022/12/03 07:42:54;;;;;;;64.40;60.30;;;;;;;3.50;100.00;102687.94;5065618;28;20523;-47
2022/12/03 07:45:23;;;;;;;64.83;60.70;;;;;;;3.49;100.00;102693.34;5072555;28;20917;-45
2022/12/03 07:47:50;;;;;;;109.43;103.33;;;;;;;3.49;100.00;102682.78;5072987;28;20438;-49
2022/12/03 07:50:18;;;;;;;111.70;105.83;;;;;;;3.47;100.00;102687.31;5072740;28;20457;-45
2022/12/03 07:52:46;;;;;;;130.03;122.70;;;;;;;3.49;100.00;102693.34;5059725;28;21012;-46
2022/12/03 07:55:13;;;;;;;220.43;208.70;;;;;;;3.50;100.00;102681.81;5052367;28;20436;-44
2022/12/03 07:57:41;;;;;;;239.50;227.40;;;;;;;3.49;100.00;102681.00;5052668;28;20518;-48
2022/12/03 08:00:11;;;;;;;239.87;228.37;;;;;;;3.49;100.00;102682.78;5052711;28;20451;-47
2022/12/03 08:02:40;;;;;;;223.57;212.20;;;;;;;3.46;100.00;102685.63;5062988;28;20458;-46
2022/12/03 08:05:08;;;;;;;196.20;186.50;;;;;;;3.40;100.00;102678.13;5072104;28;20444;-44
2022/12/03 08:07:35;;;;;;;212.87;202.53;;;;;;;3.32;100.00;102681.28;5071754;28;20435;-47
2022/12/03 08:10:04;;;;;;;236.37;224.10;;;;;;;3.30;100.00;102675.28;5072480;28;20450;-50
2022/12/03 08:12:39;;;;;;;240.87;229.63;;;;;;;3.32;100.00;102668.94;5061623;28;20579;-45
2022/12/03 08:15:13;;;;;;;244.00;232.43;;;;;;;3.30;100.00;102672.63;5052026;28;20477;-50
2022/12/03 08:17:43;;;;;;;265.13;252.20;;;;;;;3.32;100.00;102683.91;5052278;28;20435;-48
2022/12/03 08:20:16;;;;;;;272.77;259.70;;;;;;;3.35;100.00;102675.78;5051916;28;20463;-48
2022/12/03 08:22:46;;;;;;;311.47;296.67;;;;;;;3.33;100.00;102682.97;5063161;28;20461;-48
2022/12/03 08:25:19;;;;;;;294.10;280.10;;;;;;;3.31;100.00;102674.34;5072003;28;20458;-47
2022/12/03 08:27:47;;;;;;;262.70;250.33;;;;;;;3.32;100.00;102681.28;5069232;28;20456;-51
2022/12/03 08:30:17;;;;;;;287.73;274.13;;;;;;;3.33;100.00;102678.56;5069655;28;20443;-47
2022/12/03 08:32:46;;;;;;;304.67;290.37;;;;;;;3.31;100.00;102675.19;5057852;28;21001;-45
2022/12/03 08:35:23;;;;;;;301.97;288.03;;;;;;;3.32;100.00;102670.72;5050927;28;20541;-46
2022/12/03 08:38:05;;;;;;;281.63;268.00;;;;;;;3.29;100.00;102674.41;5050879;28;20446;-45
2022/12/03 08:40:35;;;;;;;278.37;265.57;;;;;;;3.26;100.00;102674.63;5050073;28;20458;-45
2022/12/03 08:43:12;;;;;;;252.83;240.13;;;;;;;3.27;100.00;102675.47;5064836;28;20454;-46
2022/12/03 08:45:41;;;;;;;237.90;226.90;;;;;;;3.29;100.00;102671.78;5070989;28;20422;-46
2022/12/03 08:48:24;;;;;;;233.50;223.00;;;;;;;3.24;100.00;102670.41;5071091;28;20446;-47
2022/12/03 08:50:53;;;;;;;219.03;208.90;;;;;;;3.27;100.00;102657.00;5070525;28;20794;-45
2022/12/03 08:53:31;;;;;;;214.97;204.93;;;;;;;3.32;100.00;102665.44;5053243;28;20479;-46
2022/12/03 08:56:01;;;;;;;219.20;208.90;;;;;;;3.31;100.00;102659.34;5050409;28;20945;-46
2022/12/03 08:58:38;;;;;;;213.73;204.00;;;;;;;3.30;100.00;102659.44;5050779;28;20806;-45
2022/12/03 09:01:41;;;;;;;224.30;213.47;;;;;;;3.32;100.00;102660.19;5049777;28;20434;-44
2022/12/03 09:04:21;;;;;;;228.13;217.40;;;;;;;3.34;100.00;102663.56;4967685;28;20467;-46
2022/12/03 09:06:49;;;;;;;215.70;205.50;;;;;;;3.37;100.00;102660.72;5042145;28;20469;-46
2022/12/03 09:09:17;;;;;;;218.50;208.27;;;;;;;3.34;100.00;102653.03;5050477;28;20447;-45
2022/12/03 09:11:46;;;;;;;236.13;224.27;;;;;;;3.37;100.00;102663.38;5053179;28;20817;-45
2022/12/03 09:14:13;;;;;;;244.20;232.90;;;;;;;3.36;100.00;102656.41;5070219;28;20474;-44
2022/12/03 09:16:45;;;;;;;260.70;248.57;;;;;;;3.33;100.00;102660.09;5071001;28;20442;-50
2022/12/03 09:19:13;;;;;;;270.53;257.70;;;;;;;3.37;100.00;102652.81;5070673;28;20466;-46
2022/12/03 09:21:42;;;;;;;246.20;235.10;;;;;;;3.35;100.00;102657.34;5066271;28;20443;-47
2022/12/03 09:24:09;;;;;;;276.80;264.23;;;;;;;3.34;100.00;102655.66;5049937;28;20447;-46
2022/12/03 09:26:37;;;;;;;282.53;269.63;;;;;;;3.32;100.00;102650.47;5049486;28;20424;-46
2022/12/03 09:29:05;;;;;;;314.67;300.17;;;;;;;3.33;100.00;102648.69;5049152;28;20453;-45
2022/12/03 09:31:38;;;;;;;305.63;292.03;;;;;;;3.33;100.00;102654.81;5048470;28;20500;-46
2022/12/03 09:34:06;;;;;;;325.43;311.17;;;;;;;3.29;100.00;102652.47;5049940;28;20529;-44
2022/12/03 09:36:34;;;;;;;341.43;326.03;;;;;;;3.29;100.00;102655.09;5050773;28;20518;-46
2022/12/03 09:39:03;;;;;;;328.23;313.40;;;;;;;3.24;100.00;102662.50;5050255;28;20451;-49
2022/12/03 09:41:31;;;;;;;331.77;316.50;;;;;;;3.20;100.00;102650.44;5049325;28;20437;-45
2022/12/03 09:43:58;;;;;;;309.67;295.97;;;;;;;3.18;100.00;102652.34;5050161;28;20427;-46
2022/12/03 09:46:33;;;;;;;310.23;296.53;;;;;;;3.15;100.00;102645.50;5051029;28;20953;-44
2022/12/03 09:49:02;;;;;;;316.73;302.27;;;;;;;3.11;100.00;102669.50;5050800;28;20964;-46
2022/12/03 09:51:33;;;;;;;311.20;297.40;;;;;;;3.09;100.00;102659.09;5051489;28;20802;-45
2022/12/03 09:54:01;;;;;;;325.03;309.80;;;;;;;3.09;100.00;102645.06;5053783;28;20985;-45
2022/12/03 09:56:30;;;;;;;316.17;301.00;;;;;;;3.08;100.00;102648.63;5053911;28;20441;-44
2022/12/03 09:58:58;;;;;;;346.80;331.00;;;;;;;3.04;100.00;102639.25;5053488;28;20458;-47
2022/12/03 10:01:26;;;;;;;325.70;310.77;;;;;;;3.03;100.00;102635.78;5052473;28;20435;-45
2022/12/03 10:03:57;;;;;;;330.37;315.63;;;;;;;3.03;100.00;102645.47;5053511;28;20427;-45
2022/12/03 10:06:25;;;;;;;316.13;301.37;;;;;;;3.01;100.00;102629.78;5053938;28;20485;-44
2022/12/03 10:08:54;;;;;;;306.63;292.47;;;;;;;3.03;100.00;102633.13;5053667;28;20947;-45
2022/12/03 10:11:24;;;;;;;297.53;283.70;;;;;;;3.04;100.00;102628.72;5053324;28;20435;-45
2022/12/03 10:13:55;;;;;;;303.03;289.33;;;;;;;3.05;100.00;102615.41;5073399;28;20478;-44
2022/12/03 10:16:24;;;;;;;298.60;285.30;;;;;;;3.05;100.00;102627.75;5073849;28;20513;-45
2022/12/03 10:18:54;;;;;;;279.80;266.77;;;;;;;3.02;100.00;102636.72;5073041;28;20464;-46
2022/12/03 10:21:25;;;;;;;263.27;251.40;;;;;;;3.05;100.00;102635.66;5072434;28;20423;-48
2022/12/03 10:24:18;;;;;;;286.03;272.73;;;;;;;3.04;100.00;102632.19;5053219;28;20434;-46
2022/12/03 10:26:47;;;;;;;273.50;261.07;;;;;;;3.05;100.00;102618.06;5053431;28;20466;-46
2022/12/03 10:29:18;;;;;;;298.70;285.20;;;;;;;3.08;100.00;102624.91;5053309;28;20984;-46
2022/12/03 10:31:49;;;;;;;288.97;275.47;;;;;;;3.07;100.00;102604.78;5051038;28;20478;-45
2022/12/03 10:34:24;;;;;;;289.77;276.57;;;;;;;3.07;100.00;102613.53;5052003;28;20532;-45
2022/12/03 10:37:12;;;;;;;296.90;283.30;;;;;;;3.08;100.00;102609.94;5053413;28;20453;-46
2022/12/03 10:39:53;;;;;;;288.87;275.63;;;;;;;3.13;100.00;102610.50;5052728;28;20459;-45
2022/12/03 10:42:23;;;;;;;282.80;269.63;;;;;;;3.11;100.00;102609.75;5060887;28;20486;-45
2022/12/03 10:45:08;;;;;;;292.20;278.87;;;;;;;3.17;100.00;102605.84;5064500;28;20427;-49
2022/12/03 10:47:35;;;;;;;281.70;269.23;;;;;;;3.22;100.00;102606.41;5052689;28;20449;-49
2022/12/03 10:50:06;;;;;;;272.77;259.80;;;;;;;3.21;100.00;102600.28;5052487;28;20547;-45
2022/12/03 10:52:33;;;;;;;275.33;262.63;;;;;;;3.24;100.00;102604.50;5062228;28;20473;-46
2022/12/03 10:55:01;;;;;;;246.53;235.23;;;;;;;3.23;100.00;102605.44;5072472;28;20841;-46
2022/12/03 10:57:29;;;;;;;223.57;213.10;;;;;;;3.21;100.00;102602.06;5072572;28;20430;-47
2022/12/03 10:59:57;;;;;;;208.97;198.97;;;;;;;3.18;100.00;102602.28;5072391;28;20477;-48
2022/12/03 11:02:26;;;;;;;192.30;183.17;;;;;;;3.22;100.00;102599.34;5062265;28;20459;-46
2022/12/03 11:04:54;;;;;;;181.43;171.80;;;;;;;3.25;100.00;102593.00;5052396;28;20431;-45
2022/12/03 11:07:23;;;;;;;179.13;170.50;;;;;;;3.25;100.00;102582.47;5052553;28;20493;-47
2022/12/03 11:09:53;;;;;;;167.33;159.33;;;;;;;3.26;100.00;102584.13;5052401;28;20534;-47
2022/12/03 11:12:22;;;;;;;164.20;156.00;;;;;;;3.23;100.00;102589.59;5059795;28;21023;-45
2022/12/03 11:15:06;;;;;;;156.00;148.23;;;;;;;3.21;100.00;102578.34;5072306;28;20470;-45
2022/12/03 11:17:48;;;;;;;153.00;145.30;;;;;;;3.23;100.00;102576.44;5072253;28;20547;-46
2022/12/03 11:20:57;;;;;;;154.67;146.60;;;;;;;3.18;100.00;102571.47;5071749;28;20461;-45
2022/12/03 11:23:58;;;;;;;145.40;138.20;;;;;;;3.18;100.00;102570.63;5053952;28;20451;-52
2022/12/03 11:26:59;;;;;;;144.30;137.30;;;;;;;3.15;100.00;102565.56;5058523;22;20487;-45
2022/12/03 11:30:03;;;;;;;138.27;131.07;;;;;;;3.15;100.00;102561.16;5024279;28;20431;-47
2022/12/03 11:33:01;;;;;;;139.20;131.97;;;;;;;3.11;100.00;102556.16;5050906;28;20471;-45
2022/12/03 11:35:35;;;;;;;138.10;130.73;;;;;;;3.13;100.00;102552.50;5050415;28;20459;-46
2022/12/03 11:38:44;;;;;;;117.20;110.33;;;;;;;3.11;100.00;102545.63;5051723;28;20445;-46
2022/12/03 11:41:24;;;;;;;113.27;106.37;;;;;;;3.15;100.00;102540.06;5067170;22;20454;-48